createdAt,value
2022-12-18T00:00:28.072Z,-9.27
2022-12-18T00:05:28.034Z,-9.29
2022-12-18T00:10:27.940Z,-9.29
2022-12-18T00:15:27.915Z,-9.29
2022-12-18T00:20:27.823Z,-9.30
2022-12-18T00:25:27.824Z,-9.30
2022-12-18T00:30:27.711Z,-9.30
2022-12-18T00:35:27.682Z,-9.30
2022-12-18T00:40:27.563Z,-9.31
2022-12-18T00:45:27.603Z,-9.34
2022-12-18T00:50:27.503Z,-9.36
2022-12-18T00:55:27.429Z,-9.38
2022-12-18T01:00:27.379Z,-9.39
2022-12-18T01:05:43.920Z,-9.40
2022-12-18T01:10:36.330Z,-9.42
2022-12-18T01:15:36.307Z,-9.44
2022-12-18T01:20:36.187Z,-9.44
2022-12-18T01:25:36.133Z,-9.44
2022-12-18T01:30:36.115Z,-9.43
2022-12-18T01:35:36.004Z,-9.43
2022-12-18T01:40:35.963Z,-9.44
2022-12-18T01:45:35.948Z,-9.46
2022-12-18T01:50:35.843Z,-9.49
2022-12-18T01:55:35.739Z,-9.52
2022-12-18T02:00:35.750Z,-9.56
2022-12-18T02:05:35.655Z,-9.60
2022-12-18T02:10:35.580Z,-9.63
2022-12-18T02:15:35.534Z,-9.66
2022-12-18T02:20:35.530Z,-9.67
2022-12-18T02:25:35.426Z,-9.68
2022-12-18T02:30:36.328Z,-9.67
2022-12-18T02:35:35.278Z,-9.68
2022-12-18T02:40:35.240Z,-9.69
2022-12-18T02:45:35.186Z,-9.70
2022-12-18T02:50:35.100Z,-9.72
2022-12-18T02:55:35.067Z,-9.74
2022-12-18T03:00:34.974Z,-9.77
2022-12-18T03:05:34.906Z,-9.79
2022-12-18T03:10:34.855Z,-9.82
2022-12-18T03:15:34.810Z,-9.82
2022-12-18T03:20:34.704Z,-9.81
2022-12-18T03:25:34.707Z,-9.80
2022-12-18T03:30:34.654Z,-9.79
2022-12-18T03:35:34.559Z,-9.79
2022-12-18T03:40:34.486Z,-9.81
2022-12-18T03:45:34.447Z,-9.82
2022-12-18T03:50:34.364Z,-9.84
2022-12-18T03:55:34.325Z,-9.85
2022-12-18T04:00:34.253Z,-9.86
2022-12-18T04:05:34.221Z,-9.88
2022-12-18T04:10:34.130Z,-9.89
2022-12-18T04:15:34.115Z,-9.93
2022-12-18T04:20:33.990Z,-9.97
2022-12-18T04:25:33.967Z,-10.01
2022-12-18T04:30:33.883Z,-10.07
2022-12-18T04:35:33.828Z,-10.13
2022-12-18T04:40:33.753Z,-10.20
2022-12-18T04:45:33.718Z,-10.25
2022-12-18T04:50:33.662Z,-10.30
2022-12-18T04:55:33.599Z,-10.33
2022-12-18T05:00:33.525Z,-10.36
2022-12-18T05:05:33.469Z,-10.41
2022-12-18T05:10:38.000Z,-10.46
2022-12-18T05:15:34.350Z,-10.52
2022-12-18T05:20:33.271Z,-10.57
2022-12-18T05:25:33.231Z,-10.62
2022-12-18T05:30:33.165Z,-10.67
2022-12-18T05:35:33.125Z,-10.72
2022-12-18T05:40:33.042Z,-10.75
2022-12-18T05:45:32.995Z,-10.77
2022-12-18T05:50:32.911Z,-10.78
2022-12-18T05:55:32.887Z,-10.79
2022-12-18T06:00:32.797Z,-10.81
2022-12-18T06:05:32.753Z,-10.82
2022-12-18T06:10:32.695Z,-10.84
2022-12-18T06:15:32.672Z,-10.87
2022-12-18T06:20:33.765Z,-10.90
2022-12-18T06:25:32.520Z,-10.93
2022-12-18T06:30:32.447Z,-10.96
2022-12-18T06:35:32.406Z,-11.00
2022-12-18T06:40:32.367Z,-11.02
2022-12-18T06:45:32.332Z,-11.04
2022-12-18T06:50:32.190Z,-11.05
2022-12-18T06:55:32.156Z,-11.04
2022-12-18T07:00:47.698Z,-11.04
2022-12-18T07:05:40.081Z,-11.03
2022-12-18T07:10:44.741Z,-11.01
2022-12-18T07:15:40.962Z,-10.97
2022-12-18T07:20:39.916Z,-10.91
2022-12-18T07:25:39.842Z,-10.83
2022-12-18T07:30:39.775Z,-10.74
2022-12-18T07:35:39.721Z,-10.66
2022-12-18T07:40:39.674Z,-10.57
2022-12-18T07:45:39.645Z,-10.50
2022-12-18T07:50:39.545Z,-10.44
2022-12-18T07:56:05.521Z,-10.39
2022-12-18T08:00:40.416Z,-10.33
2022-12-18T08:05:39.355Z,-10.28
2022-12-18T08:10:39.330Z,-10.22
2022-12-18T08:15:39.222Z,-10.16
2022-12-18T08:20:39.185Z,-10.04
2022-12-18T08:25:39.120Z,-9.83
2022-12-18T08:30:39.127Z,-9.52
2022-12-18T08:35:45.449Z,-9.11
2022-12-18T08:40:39.941Z,-8.64
2022-12-18T08:45:38.918Z,-8.14
2022-12-18T08:50:38.799Z,-7.64
2022-12-18T08:55:38.780Z,-7.18
2022-12-18T09:00:38.719Z,-6.83
2022-12-18T09:05:38.593Z,-6.54
2022-12-18T09:10:43.150Z,-6.18
2022-12-18T09:15:38.500Z,-5.76
2022-12-18T09:20:38.468Z,-5.31
2022-12-18T09:25:38.400Z,-4.87
2022-12-18T09:30:38.338Z,-4.54
2022-12-18T09:35:38.286Z,-4.37
2022-12-18T09:40:38.178Z,-4.37
2022-12-18T09:45:38.129Z,-4.33
2022-12-18T09:50:38.090Z,-4.14
2022-12-18T09:55:38.010Z,-3.86
2022-12-18T10:00:37.971Z,-3.63
2022-12-18T10:05:37.884Z,-3.46
2022-12-18T10:10:37.834Z,-3.34
2022-12-18T10:15:37.763Z,-3.27
2022-12-18T10:20:37.713Z,-3.22
2022-12-18T10:25:37.635Z,-3.13
2022-12-18T10:30:37.583Z,-3.01
2022-12-18T10:35:37.507Z,-2.85
2022-12-18T10:40:37.418Z,-2.65
2022-12-18T10:45:37.348Z,-2.41
2022-12-18T10:51:09.035Z,-2.17
2022-12-18T10:55:38.228Z,-2.00
2022-12-18T11:00:37.193Z,-1.86
2022-12-18T11:05:37.169Z,-1.70
2022-12-18T11:10:37.055Z,-1.59
2022-12-18T11:15:37.053Z,-1.54
2022-12-18T11:20:36.939Z,-1.48
2022-12-18T11:25:37.804Z,-1.43
2022-12-18T11:30:36.863Z,-1.36
2022-12-18T11:35:36.736Z,-1.29
2022-12-18T11:40:41.122Z,-1.27
2022-12-18T11:45:36.637Z,-1.33
2022-12-18T11:50:36.599Z,-1.43
2022-12-18T11:55:36.460Z,-1.53
2022-12-18T12:00:36.640Z,-1.59
2022-12-18T12:05:36.330Z,-1.61
2022-12-18T12:10:36.300Z,-1.59
2022-12-18T12:15:36.227Z,-1.56
2022-12-18T12:20:36.277Z,-1.50
2022-12-18T12:25:36.145Z,-1.43
2022-12-18T12:30:36.063Z,-1.36
2022-12-18T12:35:36.004Z,-1.31
2022-12-18T12:40:57.004Z,-1.29
2022-12-18T12:45:36.847Z,-1.27
2022-12-18T12:50:35.785Z,-1.25
2022-12-18T12:55:35.687Z,-1.23
2022-12-18T13:00:35.646Z,-1.21
2022-12-18T13:05:35.565Z,-1.20
2022-12-18T13:10:35.513Z,-1.20
2022-12-18T13:15:39.290Z,-1.21
2022-12-18T13:20:35.363Z,-1.23
2022-12-18T13:25:35.294Z,-1.25
2022-12-18T13:30:35.310Z,-1.27
2022-12-18T13:35:35.181Z,-1.27
2022-12-18T13:40:35.120Z,-1.28
2022-12-18T13:45:35.066Z,-1.30
2022-12-18T13:50:36.035Z,-1.33
2022-12-18T13:55:34.913Z,-1.38
2022-12-18T14:00:34.900Z,-1.43
2022-12-18T14:05:34.769Z,-1.50
2022-12-18T14:10:48.568Z,-1.57
2022-12-18T14:15:35.681Z,-1.63
2022-12-18T14:20:34.795Z,-1.70
2022-12-18T14:25:34.519Z,-1.75
2022-12-18T14:30:34.567Z,-1.81
2022-12-18T14:35:34.418Z,-1.88
2022-12-18T14:40:34.351Z,-1.97
2022-12-18T14:45:41.096Z,-2.08
2022-12-18T14:50:35.433Z,-2.20
2022-12-18T14:55:34.122Z,-2.31
2022-12-18T15:00:34.109Z,-2.43
2022-12-18T15:05:34.017Z,-2.54
2022-12-18T15:10:33.972Z,-2.66
2022-12-18T15:15:34.012Z,-2.78
2022-12-18T15:20:33.858Z,-2.89
2022-12-18T15:25:33.757Z,-2.99
2022-12-18T15:30:33.779Z,-3.08
2022-12-18T15:35:33.687Z,-3.16
2022-12-18T15:40:33.640Z,-3.23
2022-12-18T15:45:33.516Z,-3.28
2022-12-18T15:50:33.461Z,-3.32
2022-12-18T15:55:33.373Z,-3.36
2022-12-18T16:00:33.350Z,-3.39
2022-12-18T16:05:33.251Z,-3.41
2022-12-18T16:10:33.198Z,-3.44
2022-12-18T16:15:33.233Z,-3.45
2022-12-18T16:20:33.063Z,-3.47
2022-12-18T16:25:32.995Z,-3.47
2022-12-18T16:30:38.338Z,-3.47
2022-12-18T16:35:33.920Z,-3.48
2022-12-18T16:40:32.830Z,-3.51
2022-12-18T16:45:32.757Z,-3.53
2022-12-18T16:50:32.810Z,-3.55
2022-12-18T16:55:32.629Z,-3.55
2022-12-18T17:00:32.559Z,-3.55
2022-12-18T17:05:32.499Z,-3.55
2022-12-18T17:10:32.456Z,-3.54
2022-12-18T17:15:32.521Z,-3.53
2022-12-18T17:20:32.312Z,-3.52
2022-12-18T17:25:32.233Z,-3.51
2022-12-18T17:30:32.183Z,-3.50
2022-12-18T17:35:32.167Z,-3.49
2022-12-18T17:40:32.040Z,-3.49
2022-12-18T17:45:31.959Z,-3.48
2022-12-18T17:50:31.923Z,-3.46
2022-12-18T17:55:31.865Z,-3.45
2022-12-18T18:00:31.781Z,-3.43
2022-12-18T18:05:31.681Z,-3.40
2022-12-18T18:10:31.681Z,-3.38
2022-12-18T18:15:31.618Z,-3.36
2022-12-18T18:20:31.569Z,-3.34
2022-12-18T18:25:31.453Z,-3.31
2022-12-18T18:30:31.410Z,-3.29
2022-12-18T18:35:53.507Z,-3.26
2022-12-18T18:40:32.289Z,-3.24
2022-12-18T18:45:31.248Z,-3.21
2022-12-18T18:50:31.157Z,-3.18
2022-12-18T18:55:31.066Z,-3.13
2022-12-18T19:00:31.068Z,-3.08
2022-12-18T19:05:31.936Z,-3.03
2022-12-18T19:10:30.898Z,-2.97
2022-12-18T19:15:30.829Z,-2.91
2022-12-18T19:20:30.765Z,-2.85
2022-12-18T19:25:40.663Z,-2.79
2022-12-18T19:30:31.674Z,-2.73
2022-12-18T19:35:30.596Z,-2.66
2022-12-18T19:40:30.518Z,-2.61
2022-12-18T19:45:30.496Z,-2.55
2022-12-18T19:50:30.416Z,-2.50
2022-12-18T19:55:30.304Z,-2.45
2022-12-18T20:00:31.070Z,-2.41
2022-12-18T20:05:30.253Z,-2.36
2022-12-18T20:10:30.136Z,-2.32
2022-12-18T20:15:30.086Z,-2.27
2022-12-18T20:20:30.003Z,-2.23
2022-12-18T20:25:29.926Z,-2.19
2022-12-18T20:30:29.868Z,-2.15
2022-12-18T20:35:29.817Z,-2.11
2022-12-18T20:40:29.754Z,-2.06
2022-12-18T20:45:29.671Z,-2.01
2022-12-18T20:50:29.643Z,-1.96
2022-12-18T20:55:29.559Z,-1.91
2022-12-18T21:00:29.487Z,-1.86
2022-12-18T21:05:29.480Z,-1.81
2022-12-18T21:10:29.415Z,-1.77
2022-12-18T21:15:29.279Z,-1.73
2022-12-18T21:20:29.249Z,-1.69
2022-12-18T21:25:29.150Z,-1.66
2022-12-18T21:30:29.118Z,-1.62
2022-12-18T21:35:29.273Z,-1.58
2022-12-18T21:40:28.948Z,-1.55
2022-12-18T21:45:28.940Z,-1.52
2022-12-18T21:50:28.865Z,-1.49
2022-12-18T21:55:28.792Z,-1.45
2022-12-18T22:00:28.717Z,-1.42
2022-12-18T22:05:28.669Z,-1.39
2022-12-18T22:10:28.588Z,-1.36
2022-12-18T22:15:28.548Z,-1.34
2022-12-18T22:20:29.279Z,-1.32
2022-12-18T22:25:28.378Z,-1.30
2022-12-18T22:30:28.323Z,-1.29
2022-12-18T22:35:28.272Z,-1.27
2022-12-18T22:40:28.195Z,-1.25
2022-12-18T22:45:28.142Z,-1.23
2022-12-18T22:50:28.078Z,-1.21
2022-12-18T22:55:28.017Z,-1.19
2022-12-18T23:00:27.964Z,-1.16
2022-12-18T23:05:27.856Z,-1.14
2022-12-18T23:10:27.838Z,-1.11
2022-12-18T23:15:28.721Z,-1.08
2022-12-18T23:20:27.690Z,-1.05
2022-12-18T23:25:27.606Z,-1.02
2022-12-18T23:30:27.563Z,-0.99
2022-12-18T23:35:27.514Z,-0.95
2022-12-18T23:40:27.406Z,-0.92
2022-12-18T23:45:27.367Z,-0.88
2022-12-18T23:50:29.611Z,-0.85
2022-12-18T23:55:27.227Z,-0.81
